createdAt,value
2022-09-25T00:00:44.585Z,9.32
2022-09-25T00:05:47.119Z,9.18
2022-09-25T00:10:50.683Z,8.52
2022-09-25T00:15:56.175Z,9.10
2022-09-25T00:21:01.569Z,9.10
2022-09-25T00:26:05.951Z,9.90
2022-09-25T00:31:08.289Z,8.70
2022-09-25T00:36:10.522Z,8.40
2022-09-25T00:41:12.268Z,8.05
2022-09-25T00:46:20.078Z,9.00
2022-09-25T00:51:28.146Z,11.23
2022-09-25T00:56:34.838Z,9.07
2022-09-25T01:01:36.441Z,9.27
2022-09-25T01:06:38.119Z,10.10
2022-09-25T01:11:39.639Z,10.13
2022-09-25T01:16:56.268Z,8.50
2022-09-25T01:22:06.861Z,8.73
2022-09-25T01:27:30.787Z,8.70
2022-09-25T01:33:03.405Z,8.25
2022-09-25T01:38:39.626Z,8.32
2022-09-25T01:44:33.764Z,8.27
2022-09-25T01:49:45.778Z,8.88
2022-09-25T01:54:54.315Z,7.75
2022-09-25T01:59:59.872Z,8.68
2022-09-25T02:05:05.726Z,8.45
2022-09-25T02:10:46.754Z,8.60
2022-09-25T02:15:55.586Z,8.30
2022-09-25T02:21:16.601Z,7.93
2022-09-25T02:26:25.027Z,8.98
2022-09-25T02:31:35.663Z,7.80
2022-09-25T02:36:37.310Z,8.25
2022-09-25T02:42:04.564Z,8.13
2022-09-25T02:47:08.766Z,7.85
2022-09-25T02:52:26.704Z,8.27
2022-09-25T02:58:02.655Z,7.25
2022-09-25T03:03:06.180Z,7.57
2022-09-25T03:08:26.492Z,7.30
2022-09-25T03:13:33.154Z,7.25
2022-09-25T03:18:34.731Z,7.88
2022-09-25T03:23:36.293Z,7.18
2022-09-25T03:28:37.812Z,7.57
2022-09-25T03:33:42.544Z,7.65
2022-09-25T03:38:45.864Z,7.88
2022-09-25T03:43:51.211Z,10.80
2022-09-25T03:48:53.526Z,7.35
2022-09-25T03:53:55.391Z,7.57
2022-09-25T03:58:57.471Z,7.10
2022-09-25T04:04:01.092Z,7.25
2022-09-25T04:09:02.594Z,7.25
2022-09-25T04:14:04.878Z,6.90
2022-09-25T04:19:06.935Z,7.38
2022-09-25T04:24:27.004Z,7.72
2022-09-25T04:29:29.062Z,7.68
2022-09-25T04:34:30.914Z,6.90
2022-09-25T04:39:32.420Z,7.43
2022-09-25T04:44:33.944Z,7.05
2022-09-25T04:49:36.335Z,7.60
2022-09-25T04:54:37.850Z,6.93
2022-09-25T04:59:39.434Z,6.63
2022-09-25T05:04:41.167Z,7.63
2022-09-25T05:09:42.672Z,7.60
2022-09-25T05:14:44.217Z,8.20
2022-09-25T05:19:45.719Z,7.22
2022-09-25T05:24:47.242Z,8.70
2022-09-25T05:29:49.562Z,8.23
2022-09-25T05:34:51.078Z,7.72
2022-09-25T05:39:52.682Z,7.25
2022-09-25T05:44:54.175Z,7.20
2022-09-25T05:49:55.725Z,7.72
2022-09-25T05:54:57.357Z,7.28
2022-09-25T05:59:59.230Z,7.97
2022-09-25T06:05:00.753Z,7.40
2022-09-25T06:10:02.409Z,7.03
2022-09-25T06:15:04.275Z,7.22
2022-09-25T06:20:06.188Z,6.90
2022-09-25T06:25:08.224Z,7.88
2022-09-25T06:30:10.078Z,7.50
2022-09-25T06:35:11.596Z,7.90
2022-09-25T06:40:13.210Z,7.45
2022-09-25T06:45:14.838Z,7.78
2022-09-25T06:50:16.460Z,7.80
2022-09-25T06:55:17.982Z,8.30
2022-09-25T07:00:19.609Z,7.32
2022-09-25T07:05:21.124Z,8.40
2022-09-25T07:10:22.673Z,7.63
2022-09-25T07:15:24.209Z,8.13
2022-09-25T07:20:25.776Z,8.20
2022-09-25T07:25:27.387Z,7.78
2022-09-25T07:30:29.592Z,7.55
2022-09-25T07:35:31.129Z,8.55
2022-09-25T07:40:35.430Z,7.85
2022-09-25T07:45:37.202Z,7.75
2022-09-25T07:50:38.785Z,8.00
2022-09-25T07:55:41.173Z,7.60
2022-09-25T08:00:43.492Z,8.73
2022-09-25T08:05:45.070Z,7.57
2022-09-25T08:10:46.612Z,7.07
2022-09-25T08:15:48.824Z,7.63
2022-09-25T08:20:50.478Z,6.70
2022-09-25T08:25:52.028Z,7.63
2022-09-25T08:30:54.214Z,7.13
2022-09-25T08:36:01.161Z,7.25
2022-09-25T08:41:09.465Z,7.05
2022-09-25T08:46:59.891Z,7.85
2022-09-25T08:52:05.115Z,6.80
2022-09-25T08:57:25.027Z,7.40
2022-09-25T09:02:35.772Z,8.68
2022-09-25T09:07:43.696Z,7.53
2022-09-25T09:12:48.040Z,8.20
2022-09-25T09:17:49.567Z,7.25
2022-09-25T09:22:52.814Z,7.72
2022-09-25T09:28:07.044Z,8.30
2022-09-25T09:33:20.746Z,9.40
2022-09-25T09:38:32.587Z,9.52
2022-09-25T09:43:58.719Z,8.93
2022-09-25T09:49:24.504Z,11.63
2022-09-25T09:54:35.729Z,9.80
2022-09-25T09:59:44.965Z,9.13
2022-09-25T10:04:47.063Z,8.93
2022-09-25T10:09:53.325Z,8.23
2022-09-25T10:14:55.489Z,10.07
2022-09-25T10:20:03.870Z,14.77
2022-09-25T10:25:06.569Z,10.13
2022-09-25T10:30:11.019Z,9.27
2022-09-25T10:35:21.405Z,8.50
2022-09-25T10:40:30.941Z,8.02
2022-09-25T10:45:33.774Z,8.70
2022-09-25T10:50:36.980Z,6.57
2022-09-25T10:55:43.895Z,5.90
2022-09-25T11:00:54.549Z,4.38
2022-09-25T11:06:21.039Z,4.15
2022-09-25T11:11:26.842Z,5.05
2022-09-25T11:16:48.705Z,5.07
2022-09-25T11:22:14.406Z,3.80
2022-09-25T11:27:21.678Z,4.35
2022-09-25T11:32:42.732Z,3.72
2022-09-25T11:38:41.822Z,4.35
2022-09-25T11:44:05.283Z,3.33
2022-09-25T11:49:19.366Z,5.57
2022-09-25T11:54:39.346Z,4.22
2022-09-25T11:59:47.036Z,3.60
2022-09-25T12:05:04.063Z,3.65
2022-09-25T12:10:24.677Z,3.30
2022-09-25T12:15:46.579Z,3.90
2022-09-25T12:21:05.952Z,4.35
2022-09-25T12:26:30.868Z,4.97
2022-09-25T12:32:00.580Z,5.13
2022-09-25T12:37:43.424Z,5.25
2022-09-25T12:42:52.560Z,5.57
2022-09-25T12:48:05.155Z,5.85
2022-09-25T12:53:30.624Z,5.95
2022-09-25T12:58:44.339Z,5.47
2022-09-25T13:04:10.925Z,5.75
2022-09-25T13:09:18.362Z,5.32
2022-09-25T13:14:28.339Z,5.57
2022-09-25T13:19:34.252Z,4.82
2022-09-25T13:24:44.504Z,5.35
2022-09-25T13:29:54.152Z,5.47
2022-09-25T13:34:58.547Z,5.00
2022-09-25T13:40:19.342Z,5.00
2022-09-25T13:45:32.402Z,5.78
2022-09-25T13:50:36.251Z,5.20
2022-09-25T13:55:42.238Z,4.95
2022-09-25T14:01:02.882Z,4.90
2022-09-25T14:06:07.565Z,6.50
2022-09-25T14:11:12.633Z,6.63
2022-09-25T14:16:25.930Z,10.82
2022-09-25T14:21:28.551Z,5.10
2022-09-25T14:26:30.125Z,6.97
2022-09-25T14:31:50.213Z,4.60
2022-09-25T14:37:05.115Z,6.03
2022-09-25T14:42:53.157Z,5.35
2022-09-25T14:47:57.570Z,4.30
2022-09-25T14:53:01.250Z,5.25
2022-09-25T14:58:03.222Z,5.13
2022-09-25T15:03:04.839Z,4.60
2022-09-25T15:08:30.942Z,4.10
2022-09-25T15:13:33.666Z,4.45
2022-09-25T15:18:39.860Z,5.32
2022-09-25T15:23:44.000Z,6.28
2022-09-25T15:28:45.855Z,4.22
2022-09-25T15:34:02.655Z,4.05
2022-09-25T15:39:13.775Z,7.78
2022-09-25T15:44:22.654Z,3.88
2022-09-25T15:49:28.080Z,4.25
2022-09-25T15:54:44.218Z,5.72
2022-09-25T16:00:07.667Z,8.07
2022-09-25T16:05:10.492Z,17.63
2022-09-25T16:10:17.962Z,7.78
2022-09-25T16:15:36.308Z,4.97
2022-09-25T16:20:39.613Z,4.60
2022-09-25T16:25:44.684Z,5.15
2022-09-25T16:31:07.881Z,4.40
2022-09-25T16:36:17.760Z,4.95
2022-09-25T16:41:22.100Z,5.25
2022-09-25T16:46:24.014Z,4.57
2022-09-25T16:51:30.025Z,6.03
2022-09-25T16:56:32.521Z,6.05
2022-09-25T17:01:34.282Z,7.10
2022-09-25T17:06:40.751Z,6.72
2022-09-25T17:11:44.976Z,5.97
2022-09-25T17:16:46.502Z,6.25
2022-09-25T17:21:53.060Z,5.97
2022-09-25T17:26:54.744Z,9.50
2022-09-25T17:31:56.267Z,7.18
2022-09-25T17:36:57.986Z,7.70
2022-09-25T17:42:02.935Z,7.47
2022-09-25T17:47:06.052Z,8.55
2022-09-25T17:52:09.494Z,7.65
2022-09-25T17:57:11.005Z,8.65
2022-09-25T18:02:15.252Z,7.07
2022-09-25T18:07:16.930Z,7.07
2022-09-25T18:12:18.469Z,10.65
2022-09-25T18:17:19.993Z,11.32
2022-09-25T18:22:25.242Z,8.57
2022-09-25T18:27:29.807Z,8.35
2022-09-25T18:32:31.666Z,8.77
2022-09-25T18:37:33.266Z,7.47
2022-09-25T18:42:34.801Z,7.65
2022-09-25T18:47:36.388Z,7.30
2022-09-25T18:52:38.180Z,7.40
2022-09-25T18:57:40.722Z,7.53
2022-09-25T19:02:43.287Z,8.23
2022-09-25T19:07:45.062Z,8.30
2022-09-25T19:12:47.010Z,9.35
2022-09-25T19:17:48.599Z,9.27
2022-09-25T19:22:50.761Z,9.32
2022-09-25T19:27:52.345Z,9.02
2022-09-25T19:32:53.863Z,8.90
2022-09-25T19:37:55.402Z,9.65
2022-09-25T19:42:57.953Z,9.05
2022-09-25T19:48:00.169Z,9.93
2022-09-25T19:53:01.974Z,9.20
2022-09-25T19:58:04.465Z,9.13
2022-09-25T20:03:06.085Z,9.98
2022-09-25T20:08:08.164Z,9.63
2022-09-25T20:13:10.246Z,9.57
2022-09-25T20:18:11.768Z,10.27
2022-09-25T20:23:13.344Z,8.70
2022-09-25T20:28:14.926Z,9.68
2022-09-25T20:33:17.261Z,10.45
2022-09-25T20:38:18.794Z,9.32
2022-09-25T20:43:21.588Z,8.95
2022-09-25T20:48:24.400Z,8.77
2022-09-25T20:53:27.792Z,9.40
2022-09-25T20:58:29.507Z,9.00
2022-09-25T21:03:35.878Z,9.32
2022-09-25T21:08:37.599Z,9.45
2022-09-25T21:13:40.360Z,10.13
2022-09-25T21:18:42.256Z,8.65
2022-09-25T21:23:48.263Z,8.73
2022-09-25T21:28:51.621Z,9.15
2022-09-25T21:33:54.395Z,10.60
2022-09-25T21:38:56.371Z,10.18
2022-09-25T21:44:04.154Z,10.13
2022-09-25T21:49:06.655Z,10.60
2022-09-25T21:54:10.139Z,9.80
2022-09-25T21:59:12.200Z,10.43
2022-09-25T22:04:15.282Z,10.38
2022-09-25T22:09:23.202Z,10.85
2022-09-25T22:14:24.769Z,15.40
2022-09-25T22:19:28.367Z,10.65
2022-09-25T22:24:29.964Z,11.27
2022-09-25T22:29:31.832Z,10.80
2022-09-25T22:34:33.373Z,10.18
2022-09-25T22:39:34.928Z,10.35
2022-09-25T22:44:36.451Z,11.27
2022-09-25T22:49:38.001Z,11.30
2022-09-25T22:54:39.619Z,11.00
2022-09-25T22:59:41.168Z,11.32
2022-09-25T23:04:44.814Z,11.65
2022-09-25T23:09:46.405Z,12.23
2022-09-25T23:14:47.925Z,11.27
2022-09-25T23:19:49.459Z,11.10
2022-09-25T23:24:50.981Z,11.73
2022-09-25T23:29:52.555Z,11.30
2022-09-25T23:34:54.107Z,10.32
2022-09-25T23:39:55.904Z,10.45
2022-09-25T23:44:57.889Z,10.50
2022-09-25T23:50:04.177Z,10.05
2022-09-25T23:55:06.622Z,9.65
